Time;durP1;ratioP1;P1;durP2;ratioP2;P2;SDS_P1;SDS_P2;PMS_P1;PMS_P2;Temp;Humidity;BMP_temperature;BMP_pressure;BME280_temperature;BME280_humidity;BME280_pressure;Samples;Min_cycle;Max_cycle;Signal;HPM_P1;HPM_P2
2022/10/20 00:00:47;;;;;;;14.45;8.50;;;;;;;;;;5025716;28;20036;-75
2022/10/20 00:03:12;;;;;;;14.10;9.25;;;;;;;;;;5022615;28;20055;-75
2022/10/20 00:05:38;;;;;;;18.00;9.50;;;;;;;;;;5021208;28;20037;-76
2022/10/20 00:08:04;;;;;;;15.32;9.05;;;;;;;;;;5025556;28;20052;-74
2022/10/20 00:10:31;;;;;;;16.00;9.32;;;;;;;;;;5019563;28;20040;-76
2022/10/20 00:12:59;;;;;;;17.83;9.43;;;;;;;;;;5019741;28;20851;-74
2022/10/20 00:15:25;;;;;;;14.90;9.07;;;;;;;;;;5019554;28;20733;-75
2022/10/20 00:17:51;;;;;;;17.67;9.60;;;;;;;;;;5011418;28;20098;-76
2022/10/20 00:20:16;;;;;;;13.82;9.10;;;;;;;;;;5019015;28;20953;-77
2022/10/20 00:22:41;;;;;;;15.18;8.38;;;;;;;;;;5021410;28;20052;-76
2022/10/20 00:25:07;;;;;;;14.02;8.88;;;;;;;;;;5022155;28;20155;-76
2022/10/20 00:27:33;;;;;;;15.77;9.32;;;;;;;;;;5021308;28;20037;-76
2022/10/20 00:29:58;;;;;;;14.10;8.80;;;;;;;;;;5019630;28;20767;-76
2022/10/20 00:32:23;;;;;;;15.65;9.55;;;;;;;;;;5019716;28;20040;-75
2022/10/20 00:34:48;;;;;;;15.80;9.18;;;;;;;;;;5027643;28;20033;-75
2022/10/20 00:37:14;;;;;;;19.17;9.48;;;;;;;;;;5019856;28;20212;-75
2022/10/20 00:39:42;;;;;;;14.23;9.30;;;;;;;;;;5020275;28;20341;-75
2022/10/20 00:42:10;;;;;;;14.20;9.45;;;;;;;;;;5021000;28;20056;-74
2022/10/20 00:44:47;;;;;;;17.92;9.98;;;;;;;;;;5018437;28;21721;-74
2022/10/20 00:47:18;;;;;;;15.95;9.90;;;;;;;;;;5020757;28;20723;-75
2022/10/20 00:49:44;;;;;;;16.48;10.10;;;;;;;;;;5019947;28;20040;-74
2022/10/20 00:52:12;;;;;;;14.35;10.02;;;;;;;;;;5018435;28;20048;-74
2022/10/20 00:54:38;;;;;;;14.18;10.43;;;;;;;;;;5020799;28;20041;-75
2022/10/20 00:57:03;;;;;;;18.13;10.43;;;;;;;;;;5019135;28;20186;-74
2022/10/20 00:59:30;;;;;;;16.30;10.32;;;;;;;;;;5034057;28;20051;-74
2022/10/20 01:01:56;;;;;;;15.73;10.40;;;;;;;;;;5020460;28;20036;-74
2022/10/20 01:04:22;;;;;;;17.50;11.07;;;;;;;;;;5019969;28;20068;-75
2022/10/20 01:06:48;;;;;;;16.23;10.80;;;;;;;;;;5020131;28;22221;-75
2022/10/20 01:09:13;;;;;;;20.67;10.80;;;;;;;;;;5019964;28;20048;-74
2022/10/20 01:12:01;;;;;;;16.15;11.05;;;;;;;;;;5020161;28;20892;-74
2022/10/20 01:14:33;;;;;;;19.77;10.63;;;;;;;;;;5023101;28;20680;-74
2022/10/20 01:17:01;;;;;;;20.58;10.85;;;;;;;;;;5017952;28;20040;-74
2022/10/20 01:19:48;;;;;;;24.08;10.68;;;;;;;;;;5018170;28;20036;-73
2022/10/20 01:22:17;;;;;;;16.08;10.95;;;;;;;;;;5021892;28;20048;-74
2022/10/20 01:25:03;;;;;;;19.67;11.27;;;;;;;;;;5017296;28;20032;-74
2022/10/20 01:27:28;;;;;;;18.60;11.90;;;;;;;;;;5013115;28;20033;-74
2022/10/20 01:29:56;;;;;;;14.65;11.07;;;;;;;;;;5017048;28;20348;-75
2022/10/20 01:32:33;;;;;;;15.13;11.00;;;;;;;;;;5019193;28;20664;-76
2022/10/20 01:35:13;;;;;;;17.08;10.95;;;;;;;;;;5019666;28;20036;-77
2022/10/20 01:37:41;;;;;;;19.77;10.43;;;;;;;;;;5019947;28;20134;-75
2022/10/20 01:40:20;;;;;;;17.27;12.02;;;;;;;;;;5018276;28;20025;-75
2022/10/20 01:42:47;;;;;;;19.40;11.43;;;;;;;;;;5017523;28;20040;-75
2022/10/20 01:45:14;;;;;;;21.13;11.85;;;;;;;;;;5019627;28;20912;-74
2022/10/20 01:47:41;;;;;;;22.35;11.93;;;;;;;;;;5017970;28;20037;-74
2022/10/20 01:50:07;;;;;;;23.55;11.85;;;;;;;;;;5020687;28;23167;-74
2022/10/20 01:52:32;;;;;;;19.42;12.05;;;;;;;;;;5021321;28;20071;-74
2022/10/20 01:54:58;;;;;;;20.27;11.85;;;;;;;;;;5021272;28;20245;-74
2022/10/20 01:57:32;;;;;;;21.92;12.43;;;;;;;;;;5016986;28;20044;-74
2022/10/20 02:00:03;;;;;;;20.10;12.20;;;;;;;;;;5016757;28;21274;-75
2022/10/20 02:02:44;;;;;;;19.45;11.50;;;;;;;;;;5020398;28;20048;-76
2022/10/20 02:05:19;;;;;;;17.10;11.70;;;;;;;;;;5019011;28;20380;-76
2022/10/20 02:07:44;;;;;;;20.33;11.85;;;;;;;;;;5017664;28;20606;-75
2022/10/20 02:10:18;;;;;;;19.40;11.88;;;;;;;;;;5018469;28;20044;-76
2022/10/20 02:12:45;;;;;;;17.73;11.40;;;;;;;;;;5015260;28;20110;-74
2022/10/20 02:15:12;;;;;;;18.52;10.95;;;;;;;;;;5017262;28;20033;-75
2022/10/20 02:17:39;;;;;;;26.67;12.43;;;;;;;;;;5017925;28;20102;-75
2022/10/20 02:20:05;;;;;;;17.67;12.13;;;;;;;;;;5017045;28;20043;-74
2022/10/20 02:22:31;;;;;;;22.17;12.50;;;;;;;;;;5020086;28;20129;-75
2022/10/20 02:24:56;;;;;;;21.95;12.02;;;;;;;;;;5018838;28;20048;-75
2022/10/20 02:27:25;;;;;;;20.00;11.85;;;;;;;;;;5018467;28;20037;-76
2022/10/20 02:29:58;;;;;;;18.77;11.73;;;;;;;;;;5018360;28;20043;-75
2022/10/20 02:32:26;;;;;;;24.80;12.60;;;;;;;;;;5016451;28;20043;-76
2022/10/20 02:34:52;;;;;;;22.40;12.77;;;;;;;;;;5019675;28;20043;-75
2022/10/20 02:37:17;;;;;;;20.33;12.48;;;;;;;;;;5031305;28;20879;-75
2022/10/20 02:39:42;;;;;;;25.27;12.65;;;;;;;;;;5018334;28;20947;-75
2022/10/20 02:42:08;;;;;;;18.73;13.20;;;;;;;;;;5017017;28;20937;-74
2022/10/20 02:44:35;;;;;;;16.95;12.55;;;;;;;;;;5019777;28;20036;-74
2022/10/20 02:47:01;;;;;;;20.35;12.63;;;;;;;;;;5018657;28;22473;-74
2022/10/20 02:49:27;;;;;;;22.98;12.40;;;;;;;;;;5016442;28;20118;-74
2022/10/20 02:51:52;;;;;;;24.15;13.02;;;;;;;;;;5021860;28;20037;-75
2022/10/20 02:54:20;;;;;;;24.42;13.18;;;;;;;;;;5018129;28;20132;-74
2022/10/20 02:56:45;;;;;;;24.13;13.15;;;;;;;;;;5021771;28;20500;-75
2022/10/20 02:59:12;;;;;;;22.48;12.93;;;;;;;;;;5018102;28;20033;-74
2022/10/20 03:01:38;;;;;;;19.73;13.23;;;;;;;;;;5018200;28;20056;-75
2022/10/20 03:04:03;;;;;;;25.15;13.10;;;;;;;;;;5018716;28;20072;-75
2022/10/20 03:06:28;;;;;;;19.58;13.02;;;;;;;;;;5018020;28;20800;-75
2022/10/20 03:08:53;;;;;;;24.13;14.15;;;;;;;;;;5020453;28;20048;-75
2022/10/20 03:11:19;;;;;;;25.05;13.82;;;;;;;;;;5017830;28;20148;-76
2022/10/20 03:13:44;;;;;;;23.52;12.95;;;;;;;;;;5020782;28;20041;-74
2022/10/20 03:16:10;;;;;;;22.05;13.80;;;;;;;;;;5018714;28;20079;-75
2022/10/20 03:18:35;;;;;;;24.17;13.15;;;;;;;;;;5020571;28;20043;-75
2022/10/20 03:21:00;;;;;;;21.75;13.80;;;;;;;;;;5017623;28;21457;-75
2022/10/20 03:23:26;;;;;;;20.05;13.70;;;;;;;;;;5015808;28;21002;-76
2022/10/20 03:25:54;;;;;;;24.10;14.70;;;;;;;;;;5016829;28;20130;-75
2022/10/20 03:28:20;;;;;;;24.73;14.27;;;;;;;;;;5016872;28;20117;-77
2022/10/20 03:30:45;;;;;;;22.65;14.02;;;;;;;;;;5016001;28;20036;-76
2022/10/20 03:33:11;;;;;;;23.88;13.93;;;;;;;;;;5017086;28;20063;-76
2022/10/20 03:35:37;;;;;;;21.05;14.63;;;;;;;;;;5017925;28;20781;-75
2022/10/20 03:38:04;;;;;;;23.15;14.65;;;;;;;;;;5020114;28;20032;-75
2022/10/20 03:40:29;;;;;;;24.25;14.68;;;;;;;;;;5017931;28;20040;-75
2022/10/20 03:42:57;;;;;;;24.10;15.98;;;;;;;;;;5000008;28;20052;-75
2022/10/20 03:45:25;;;;;;;24.90;15.27;;;;;;;;;;5008167;28;20736;-75
2022/10/20 03:47:50;;;;;;;23.95;14.73;;;;;;;;;;5021908;28;20041;-75
2022/10/20 03:50:16;;;;;;;23.98;14.25;;;;;;;;;;5018787;28;20122;-76
2022/10/20 03:52:41;;;;;;;23.25;15.23;;;;;;;;;;5021446;28;20062;-75
2022/10/20 03:55:07;;;;;;;28.15;16.08;;;;;;;;;;5023235;28;20043;-76
2022/10/20 03:57:32;;;;;;;26.45;15.98;;;;;;;;;;5019834;28;20829;-75
2022/10/20 03:59:58;;;;;;;26.65;15.35;;;;;;;;;;5021326;28;20048;-76
2022/10/20 04:02:29;;;;;;;26.25;15.93;;;;;;;;;;5020815;28;20934;-75
2022/10/20 04:04:55;;;;;;;21.67;15.23;;;;;;;;;;5021134;28;20058;-75
2022/10/20 04:07:20;;;;;;;26.00;15.93;;;;;;;;;;5020957;28;20033;-75
2022/10/20 04:09:46;;;;;;;26.77;16.33;;;;;;;;;;5019505;28;20040;-73
2022/10/20 04:12:11;;;;;;;27.02;16.55;;;;;;;;;;5024211;28;20556;-74
2022/10/20 04:14:40;;;;;;;25.00;16.40;;;;;;;;;;5020966;28;20033;-74
2022/10/20 04:17:05;;;;;;;29.80;15.82;;;;;;;;;;5030209;28;20033;-74
2022/10/20 04:19:30;;;;;;;25.65;16.08;;;;;;;;;;5017927;28;20040;-74
2022/10/20 04:21:56;;;;;;;29.02;16.48;;;;;;;;;;5021403;28;20037;-76
2022/10/20 04:24:21;;;;;;;25.45;16.15;;;;;;;;;;5019982;28;20040;-75
2022/10/20 04:26:50;;;;;;;24.08;16.13;;;;;;;;;;5020244;28;20037;-74
2022/10/20 04:29:16;;;;;;;24.92;16.70;;;;;;;;;;5019962;28;20065;-74
2022/10/20 04:31:42;;;;;;;27.67;17.58;;;;;;;;;;5020274;28;20082;-76
2022/10/20 04:34:08;;;;;;;28.98;16.73;;;;;;;;;;5018632;28;20028;-74
2022/10/20 04:36:33;;;;;;;31.17;17.00;;;;;;;;;;5021326;28;20045;-74
2022/10/20 04:38:59;;;;;;;25.48;16.52;;;;;;;;;;5019679;28;20063;-75
2022/10/20 04:41:27;;;;;;;26.80;16.75;;;;;;;;;;5017384;28;20037;-74
2022/10/20 04:43:52;;;;;;;25.02;17.20;;;;;;;;;;5018078;28;21150;-74
2022/10/20 04:46:18;;;;;;;27.40;17.75;;;;;;;;;;5015528;28;20392;-75
2022/10/20 04:48:46;;;;;;;28.17;17.73;;;;;;;;;;5018119;28;21193;-75
2022/10/20 04:51:15;;;;;;;28.85;17.92;;;;;;;;;;5018282;28;20059;-74
2022/10/20 04:53:44;;;;;;;28.52;19.08;;;;;;;;;;5019328;28;20118;-74
2022/10/20 04:56:12;;;;;;;30.30;18.27;;;;;;;;;;5020263;28;20037;-73
2022/10/20 04:58:37;;;;;;;31.40;18.38;;;;;;;;;;5018392;28;20082;-74
2022/10/20 05:01:06;;;;;;;27.02;18.08;;;;;;;;;;5018961;28;20135;-73
2022/10/20 05:03:31;;;;;;;29.25;17.70;;;;;;;;;;5017208;28;20047;-74
2022/10/20 05:06:07;;;;;;;28.92;18.13;;;;;;;;;;5019684;28;20037;-74
2022/10/20 05:08:32;;;;;;;31.73;18.10;;;;;;;;;;5018468;28;21376;-75
2022/10/20 05:10:59;;;;;;;27.52;17.40;;;;;;;;;;5019469;28;20033;-74
2022/10/20 05:13:25;;;;;;;30.60;18.25;;;;;;;;;;5019310;28;20827;-75
2022/10/20 05:15:51;;;;;;;26.23;18.50;;;;;;;;;;5016374;28;20114;-75
2022/10/20 05:18:16;;;;;;;25.65;16.88;;;;;;;;;;5017528;28;20037;-74
2022/10/20 05:20:42;;;;;;;32.17;18.08;;;;;;;;;;5021154;28;20095;-74
2022/10/20 05:23:09;;;;;;;26.60;17.40;;;;;;;;;;5017829;28;20052;-73
2022/10/20 05:25:35;;;;;;;25.75;16.70;;;;;;;;;;5017741;28;20037;-75
2022/10/20 05:28:01;;;;;;;28.33;17.38;;;;;;;;;;5018676;28;20767;-72
2022/10/20 05:30:26;;;;;;;24.80;16.60;;;;;;;;;;5018235;28;20069;-71
2022/10/20 05:32:52;;;;;;;26.08;16.48;;;;;;;;;;5019400;28;20040;-71
2022/10/20 05:35:17;;;;;;;29.75;17.58;;;;;;;;;;5019792;28;20036;-72
2022/10/20 05:37:42;;;;;;;24.92;17.27;;;;;;;;;;5016333;28;20036;-71
2022/10/20 05:40:08;;;;;;;24.58;15.93;;;;;;;;;;5029455;28;20037;-71
2022/10/20 05:42:36;;;;;;;27.58;16.52;;;;;;;;;;5015073;28;20801;-70
2022/10/20 05:45:01;;;;;;;25.95;15.88;;;;;;;;;;5017984;28;20045;-71
2022/10/20 05:47:27;;;;;;;23.05;16.48;;;;;;;;;;5017399;28;20138;-71
2022/10/20 05:49:52;;;;;;;26.38;17.48;;;;;;;;;;5017319;28;20140;-71
2022/10/20 05:52:20;;;;;;;28.08;16.65;;;;;;;;;;5017024;28;20040;-72
2022/10/20 05:54:46;;;;;;;26.88;17.15;;;;;;;;;;5016144;28;20036;-70
2022/10/20 05:57:11;;;;;;;28.10;16.85;;;;;;;;;;5020317;28;20210;-70
2022/10/20 05:59:36;;;;;;;24.50;16.52;;;;;;;;;;5016416;28;20036;-71
2022/10/20 06:02:02;;;;;;;23.80;16.65;;;;;;;;;;5016807;28;20120;-70
2022/10/20 06:04:27;;;;;;;27.77;16.95;;;;;;;;;;5015478;28;20071;-69
2022/10/20 06:06:53;;;;;;;29.25;17.08;;;;;;;;;;5021528;28;20105;-69
2022/10/20 06:09:19;;;;;;;24.50;16.33;;;;;;;;;;5017671;28;20058;-69
2022/10/20 06:11:45;;;;;;;25.30;16.90;;;;;;;;;;5014654;28;20063;-69
2022/10/20 06:14:10;;;;;;;29.65;16.73;;;;;;;;;;5008783;28;20042;-69
2022/10/20 06:16:37;;;;;;;25.42;15.90;;;;;;;;;;5016556;28;20812;-69
2022/10/20 06:19:02;;;;;;;25.50;16.55;;;;;;;;;;5011132;28;20507;-70
2022/10/20 06:21:29;;;;;;;25.25;17.17;;;;;;;;;;5013546;28;20100;-69
2022/10/20 06:23:56;;;;;;;27.85;16.33;;;;;;;;;;5014884;28;20054;-69
2022/10/20 06:26:22;;;;;;;23.73;16.25;;;;;;;;;;5013498;28;20040;-70
2022/10/20 06:28:50;;;;;;;27.30;16.40;;;;;;;;;;5012178;28;20043;-70
2022/10/20 06:31:20;;;;;;;27.23;16.85;;;;;;;;;;5014591;28;20838;-69
2022/10/20 06:33:47;;;;;;;25.17;16.13;;;;;;;;;;5011352;28;20032;-69
2022/10/20 06:36:12;;;;;;;23.15;15.18;;;;;;;;;;5011951;28;20066;-69
2022/10/20 06:38:40;;;;;;;24.05;16.15;;;;;;;;;;5016823;28;20087;-70
2022/10/20 06:41:13;;;;;;;25.77;16.27;;;;;;;;;;5009935;28;20036;-69
2022/10/20 06:43:38;;;;;;;22.83;15.80;;;;;;;;;;5011881;28;20560;-69
2022/10/20 06:46:05;;;;;;;27.67;16.60;;;;;;;;;;5016274;28;20037;-69
2022/10/20 06:48:31;;;;;;;23.73;15.95;;;;;;;;;;5011010;28;21111;-69
2022/10/20 06:50:57;;;;;;;27.20;16.50;;;;;;;;;;5022739;28;20029;-69
2022/10/20 06:53:23;;;;;;;30.90;17.25;;;;;;;;;;5019175;28;20048;-69
2022/10/20 06:55:59;;;;;;;26.67;15.90;;;;;;;;;;5015384;28;20037;-69
2022/10/20 06:58:25;;;;;;;26.05;16.30;;;;;;;;;;5014053;28;20037;-69
2022/10/20 07:01:07;;;;;;;26.77;15.75;;;;;;;;;;5021336;28;20465;-70
2022/10/20 07:03:33;;;;;;;24.58;15.70;;;;;;;;;;5014087;28;20432;-70
2022/10/20 07:06:02;;;;;;;25.35;16.63;;;;;;;;;;5008088;28;20033;-69
2022/10/20 07:08:28;;;;;;;30.30;16.65;;;;;;;;;;5015731;28;20041;-70
2022/10/20 07:11:12;;;;;;;25.88;16.33;;;;;;;;;;5014505;28;20819;-70
2022/10/20 07:13:38;;;;;;;26.58;16.58;;;;;;;;;;5013786;28;20029;-70
2022/10/20 07:16:04;;;;;;;22.38;16.45;;;;;;;;;;5014435;28;20689;-70
2022/10/20 07:18:30;;;;;;;28.45;17.00;;;;;;;;;;5011147;28;21713;-71
2022/10/20 07:20:57;;;;;;;22.40;15.85;;;;;;;;;;5018274;28;20116;-70
2022/10/20 07:23:23;;;;;;;24.85;15.98;;;;;;;;;;5014020;28;20083;-70
2022/10/20 07:25:51;;;;;;;27.27;16.95;;;;;;;;;;5019379;28;20035;-70
2022/10/20 07:28:16;;;;;;;25.20;17.35;;;;;;;;;;5019109;28;20497;-70
2022/10/20 07:30:42;;;;;;;26.52;16.10;;;;;;;;;;5017469;28;20048;-70
2022/10/20 07:33:11;;;;;;;24.15;17.15;;;;;;;;;;5019006;28;20144;-70
2022/10/20 07:35:39;;;;;;;24.83;16.30;;;;;;;;;;5017830;28;20111;-70
2022/10/20 07:38:05;;;;;;;24.63;15.85;;;;;;;;;;5012978;28;20135;-70
2022/10/20 07:40:30;;;;;;;26.05;16.58;;;;;;;;;;4997540;28;20160;-70
2022/10/20 07:42:56;;;;;;;28.95;16.08;;;;;;;;;;5016990;28;20083;-71
2022/10/20 07:45:21;;;;;;;29.25;16.20;;;;;;;;;;5019696;28;20485;-70
2022/10/20 07:47:46;;;;;;;24.40;16.40;;;;;;;;;;5018107;28;20083;-70
2022/10/20 07:50:12;;;;;;;30.05;16.90;;;;;;;;;;5016665;28;20124;-70
2022/10/20 07:52:37;;;;;;;25.17;15.85;;;;;;;;;;5014403;28;20245;-70
2022/10/20 07:55:03;;;;;;;22.08;16.13;;;;;;;;;;5019322;28;20079;-69
2022/10/20 07:57:29;;;;;;;22.23;15.70;;;;;;;;;;5016120;28;20817;-70
2022/10/20 07:59:54;;;;;;;24.67;15.52;;;;;;;;;;5010387;28;20120;-69
2022/10/20 08:02:19;;;;;;;24.15;15.73;;;;;;;;;;5033084;28;20025;-70
2022/10/20 08:04:47;;;;;;;25.23;16.08;;;;;;;;;;5017894;28;20032;-70
2022/10/20 08:07:13;;;;;;;23.67;15.07;;;;;;;;;;5019371;28;20032;-71
2022/10/20 08:09:39;;;;;;;24.70;15.60;;;;;;;;;;5017047;28;20052;-70
2022/10/20 08:12:04;;;;;;;23.80;15.63;;;;;;;;;;5022806;28;20039;-69
2022/10/20 08:14:35;;;;;;;21.63;15.70;;;;;;;;;;5020077;28;20454;-70
2022/10/20 08:17:00;;;;;;;25.38;15.65;;;;;;;;;;5016989;28;20325;-69
2022/10/20 08:19:26;;;;;;;23.52;15.38;;;;;;;;;;5017016;28;20844;-69
2022/10/20 08:21:51;;;;;;;24.25;14.90;;;;;;;;;;5016365;28;20029;-69
2022/10/20 08:24:19;;;;;;;23.98;15.25;;;;;;;;;;5018903;28;20050;-69
2022/10/20 08:26:47;;;;;;;26.00;15.15;;;;;;;;;;5018605;28;20036;-70
2022/10/20 08:29:13;;;;;;;22.98;15.57;;;;;;;;;;5016438;28;20671;-71
2022/10/20 08:31:38;;;;;;;20.48;16.17;;;;;;;;;;5017515;28;20036;-69
2022/10/20 08:34:04;;;;;;;24.30;15.20;;;;;;;;;;5014319;28;20124;-70
2022/10/20 08:36:29;;;;;;;27.55;15.75;;;;;;;;;;5023759;28;20418;-70
2022/10/20 08:38:57;;;;;;;27.77;15.07;;;;;;;;;;5025363;28;20040;-71
2022/10/20 08:41:25;;;;;;;22.27;14.43;;;;;;;;;;5018941;28;20063;-71
2022/10/20 08:43:52;;;;;;;24.02;13.98;;;;;;;;;;5015052;28;20301;-70
2022/10/20 08:46:19;;;;;;;18.83;14.00;;;;;;;;;;5018580;28;20060;-69
2022/10/20 08:48:45;;;;;;;22.50;14.32;;;;;;;;;;5016600;28;20032;-69
2022/10/20 08:51:18;;;;;;;24.23;14.13;;;;;;;;;;5018476;28;20056;-71
2022/10/20 08:53:45;;;;;;;21.33;14.30;;;;;;;;;;5016665;28;20051;-70
2022/10/20 08:56:12;;;;;;;20.75;14.05;;;;;;;;;;5019557;28;20036;-70
2022/10/20 08:58:40;;;;;;;21.58;13.60;;;;;;;;;;5017550;28;20052;-71
2022/10/20 09:01:13;;;;;;;21.20;13.07;;;;;;;;;;5019327;28;20039;-70
2022/10/20 09:03:38;;;;;;;18.63;13.40;;;;;;;;;;5017017;28;20048;-69
2022/10/20 09:06:14;;;;;;;22.08;12.75;;;;;;;;;;5015672;28;20102;-70
2022/10/20 09:08:40;;;;;;;19.42;13.35;;;;;;;;;;5018168;28;20040;-69
2022/10/20 09:11:07;;;;;;;19.08;13.40;;;;;;;;;;5016383;28;20135;-70
2022/10/20 09:13:33;;;;;;;20.70;13.35;;;;;;;;;;5018160;28;20036;-69
2022/10/20 09:16:06;;;;;;;19.45;13.30;;;;;;;;;;5017970;28;20135;-69
2022/10/20 09:18:33;;;;;;;24.98;13.73;;;;;;;;;;5017624;28;20037;-70
2022/10/20 09:21:07;;;;;;;22.50;14.25;;;;;;;;;;5018985;28;20874;-69
2022/10/20 09:23:43;;;;;;;22.52;14.73;;;;;;;;;;5018358;28;20175;-69
2022/10/20 09:26:13;;;;;;;22.13;14.55;;;;;;;;;;5014041;28;20056;-70
2022/10/20 09:28:38;;;;;;;21.58;14.55;;;;;;;;;;5017013;28;20041;-69
2022/10/20 09:31:19;;;;;;;21.85;14.52;;;;;;;;;;5025702;28;20418;-68
2022/10/20 09:33:46;;;;;;;30.83;14.77;;;;;;;;;;5013418;28;20595;-70
2022/10/20 09:36:14;;;;;;;21.08;14.32;;;;;;;;;;5016371;28;20082;-70
2022/10/20 09:38:45;;;;;;;29.38;17.33;;;;;;;;;;5014910;28;20036;-70
2022/10/20 09:41:13;;;;;;;29.02;16.70;;;;;;;;;;5019526;28;20037;-70
2022/10/20 09:43:40;;;;;;;29.52;19.30;;;;;;;;;;5013685;28;21002;-69
2022/10/20 09:46:07;;;;;;;30.27;18.73;;;;;;;;;;5014963;28;20364;-69
2022/10/20 09:48:41;;;;;;;27.92;17.30;;;;;;;;;;5017752;28;20113;-70
2022/10/20 09:51:11;;;;;;;25.13;16.17;;;;;;;;;;5015255;28;20036;-70
2022/10/20 09:53:50;;;;;;;27.60;17.55;;;;;;;;;;5015506;28;20437;-70
2022/10/20 09:56:33;;;;;;;29.83;17.42;;;;;;;;;;5017153;28;20037;-70
2022/10/20 09:59:00;;;;;;;24.30;14.80;;;;;;;;;;5016895;28;20056;-70
2022/10/20 10:01:25;;;;;;;22.00;15.18;;;;;;;;;;5015107;28;20045;-69
2022/10/20 10:03:52;;;;;;;26.50;16.40;;;;;;;;;;5015436;28;21044;-69
2022/10/20 10:06:20;;;;;;;25.95;16.45;;;;;;;;;;5016572;28;20326;-71
2022/10/20 10:08:46;;;;;;;27.10;16.98;;;;;;;;;;5013472;28;20040;-69
2022/10/20 10:11:14;;;;;;;28.02;17.65;;;;;;;;;;5022753;28;20063;-70
2022/10/20 10:13:41;;;;;;;30.90;18.08;;;;;;;;;;5014800;28;20126;-70
2022/10/20 10:16:08;;;;;;;26.08;16.35;;;;;;;;;;5015746;28;20544;-70
2022/10/20 10:18:34;;;;;;;28.98;17.42;;;;;;;;;;5013237;28;20036;-70
2022/10/20 10:21:04;;;;;;;27.20;18.25;;;;;;;;;;5015075;28;20087;-70
2022/10/20 10:23:30;;;;;;;24.88;16.60;;;;;;;;;;5015834;28;20308;-70
2022/10/20 10:25:58;;;;;;;32.50;17.48;;;;;;;;;;5015690;28;20033;-69
2022/10/20 10:28:28;;;;;;;28.45;18.38;;;;;;;;;;5013414;28;20036;-69
2022/10/20 10:31:16;;;;;;;31.25;19.52;;;;;;;;;;5012745;28;20040;-69
2022/10/20 10:33:41;;;;;;;33.53;19.65;;;;;;;;;;5015054;28;20066;-71
2022/10/20 10:36:13;;;;;;;28.77;18.48;;;;;;;;;;5015605;28;20037;-70
2022/10/20 10:38:39;;;;;;;26.50;18.77;;;;;;;;;;5015384;28;20041;-70
2022/10/20 10:41:28;;;;;;;30.27;18.30;;;;;;;;;;5017074;28;20189;-70
2022/10/20 10:44:09;;;;;;;29.77;17.20;;;;;;;;;;5015866;28;20135;-70
2022/10/20 10:46:55;;;;;;;28.58;17.48;;;;;;;;;;5016436;28;20114;-70
2022/10/20 10:49:31;;;;;;;27.05;18.20;;;;;;;;;;5007932;28;20405;-70
2022/10/20 10:52:00;;;;;;;25.73;17.20;;;;;;;;;;5026783;28;20036;-70
2022/10/20 10:54:28;;;;;;;25.98;18.58;;;;;;;;;;5014051;28;20125;-70
2022/10/20 10:56:57;;;;;;;30.63;18.38;;;;;;;;;;5016148;28;20090;-70
2022/10/20 10:59:32;;;;;;;30.25;19.38;;;;;;;;;;5016069;28;20230;-70
2022/10/20 11:02:08;;;;;;;29.42;18.50;;;;;;;;;;5018905;28;20037;-69
2022/10/20 11:04:41;;;;;;;27.88;19.10;;;;;;;;;;5022687;28;20040;-70
2022/10/20 11:07:27;;;;;;;31.20;17.35;;;;;;;;;;5022085;28;20035;-69
2022/10/20 11:10:09;;;;;;;25.88;18.40;;;;;;;;;;5019288;28;20048;-70
2022/10/20 11:12:48;;;;;;;27.17;19.42;;;;;;;;;;5020645;28;20251;-69
2022/10/20 11:15:33;;;;;;;30.20;19.17;;;;;;;;;;5019057;28;23192;-68
2022/10/20 11:18:13;;;;;;;29.95;18.75;;;;;;;;;;5019390;28;20036;-69
2022/10/20 11:20:49;;;;;;;28.88;20.48;;;;;;;;;;5017060;28;20168;-70
2022/10/20 11:23:34;;;;;;;30.25;20.23;;;;;;;;;;5015975;28;20045;-71
2022/10/20 11:26:12;;;;;;;33.65;20.73;;;;;;;;;;5016635;28;20029;-70
2022/10/20 11:28:43;;;;;;;28.10;19.00;;;;;;;;;;5015635;28;20056;-70
2022/10/20 11:31:31;;;;;;;28.83;21.02;;;;;;;;;;5017106;28;20170;-71
2022/10/20 11:34:13;;;;;;;35.15;21.60;;;;;;;;;;5015306;28;20044;-70
2022/10/20 11:36:51;;;;;;;35.50;22.67;;;;;;;;;;5017045;28;20061;-70
2022/10/20 11:39:24;;;;;;;32.83;21.05;;;;;;;;;;5015948;28;20264;-70
2022/10/20 11:41:54;;;;;;;34.13;21.42;;;;;;;;;;5014276;28;20029;-70
2022/10/20 11:44:24;;;;;;;31.35;21.70;;;;;;;;;;5016662;28;20409;-69
2022/10/20 11:47:08;;;;;;;39.60;24.13;;;;;;;;;;5016735;28;20036;-69
2022/10/20 11:49:33;;;;;;;38.47;22.73;;;;;;;;;;5016367;28;20041;-69
2022/10/20 11:52:17;;;;;;;37.33;23.00;;;;;;;;;;5014858;28;20036;-70
2022/10/20 11:54:50;;;;;;;30.05;21.67;;;;;;;;;;5030273;28;20747;-69
2022/10/20 11:57:22;;;;;;;30.35;21.98;;;;;;;;;;5014885;28;20752;-69
2022/10/20 12:00:03;;;;;;;32.90;23.27;;;;;;;;;;5017146;28;20033;-71
2022/10/20 12:02:47;;;;;;;34.40;22.10;;;;;;;;;;5009105;28;20246;-70
2022/10/20 12:05:12;;;;;;;34.38;22.63;;;;;;;;;;5020874;28;20144;-69
2022/10/20 12:07:58;;;;;;;32.00;22.73;;;;;;;;;;5019411;28;20710;-69
2022/10/20 12:10:41;;;;;;;35.15;21.98;;;;;;;;;;5006424;28;23248;-70
2022/10/20 12:13:06;;;;;;;28.75;20.67;;;;;;;;;;5016720;28;20029;-70
2022/10/20 12:15:35;;;;;;;29.77;20.70;;;;;;;;;;5007472;28;20040;-69
2022/10/20 12:18:07;;;;;;;34.45;21.52;;;;;;;;;;5027639;28;20079;-71
2022/10/20 12:20:36;;;;;;;36.28;22.50;;;;;;;;;;5014958;28;20029;-71
2022/10/20 12:23:01;;;;;;;34.33;23.73;;;;;;;;;;5016121;28;20149;-71
2022/10/20 12:25:38;;;;;;;38.58;25.42;;;;;;;;;;5016768;28;20040;-71
2022/10/20 12:28:21;;;;;;;41.03;25.50;;;;;;;;;;5014753;28;20107;-70
2022/10/20 12:30:46;;;;;;;;;;;;;;;;;;5015964;28;20036;-70
2022/10/20 12:33:16;;;;;;;42.90;27.77;;;;;;;;;;5016523;28;20361;-71
2022/10/20 12:35:57;;;;;;;44.22;26.33;;;;;;;;;;5017666;28;20036;-71
2022/10/20 12:38:24;;;;;;;41.47;26.55;;;;;;;;;;5018203;28;20099;-71
2022/10/20 12:40:56;;;;;;;46.35;27.35;;;;;;;;;;5017877;28;20164;-72
2022/10/20 12:43:45;;;;;;;41.28;27.02;;;;;;;;;;5016094;28;20043;-71
2022/10/20 12:46:14;;;;;;;39.35;26.25;;;;;;;;;;4998840;28;20037;-72
2022/10/20 12:48:42;;;;;;;39.00;26.42;;;;;;;;;;5017523;28;20047;-72
2022/10/20 12:51:16;;;;;;;43.30;29.42;;;;;;;;;;5015721;28;20518;-70
2022/10/20 12:53:42;;;;;;;53.10;32.95;;;;;;;;;;5016739;28;20033;-73
2022/10/20 12:56:09;;;;;;;42.60;28.13;;;;;;;;;;5017550;28;20115;-73
2022/10/20 12:58:36;;;;;;;78.72;46.42;;;;;;;;;;5018179;28;20039;-72
2022/10/20 13:01:01;;;;;;;82.05;44.80;;;;;;;;;;5019913;28;22286;-72
2022/10/20 13:03:30;;;;;;;44.42;31.88;;;;;;;;;;5017318;28;20075;-72
2022/10/20 13:05:55;;;;;;;49.45;34.97;;;;;;;;;;5017650;28;20039;-72
2022/10/20 13:08:22;;;;;;;41.50;30.48;;;;;;;;;;5033885;28;20101;-72
2022/10/20 13:10:48;;;;;;;47.58;32.42;;;;;;;;;;5019458;28;20032;-72
2022/10/20 13:13:17;;;;;;;57.60;43.45;;;;;;;;;;5020494;28;20036;-72
2022/10/20 13:15:46;;;;;;;51.65;35.17;;;;;;;;;;5016972;28;20046;-72
2022/10/20 13:18:11;;;;;;;71.70;43.05;;;;;;;;;;5017605;28;25139;-71
2022/10/20 13:20:55;;;;;;;49.50;33.85;;;;;;;;;;5018369;28;20040;-71
2022/10/20 13:23:29;;;;;;;50.67;33.22;;;;;;;;;;5017307;28;20044;-72
2022/10/20 13:25:57;;;;;;;41.83;30.77;;;;;;;;;;5021972;28;20093;-71
2022/10/20 13:28:23;;;;;;;48.78;32.38;;;;;;;;;;5016724;28;20037;-71
2022/10/20 13:30:52;;;;;;;39.35;29.80;;;;;;;;;;5019942;28;20032;-72
2022/10/20 13:33:22;;;;;;;37.20;27.25;;;;;;;;;;5019337;28;20270;-70
2022/10/20 13:35:52;;;;;;;42.27;32.37;;;;;;;;;;5019990;28;20033;-70
2022/10/20 13:38:27;;;;;;;40.85;29.25;;;;;;;;;;5019318;28;20267;-71
2022/10/20 13:41:01;;;;;;;48.45;33.95;;;;;;;;;;5017815;28;20060;-71
2022/10/20 13:43:41;;;;;;;52.40;35.15;;;;;;;;;;5019081;28;20052;-71
2022/10/20 13:46:25;;;;;;;46.40;33.20;;;;;;;;;;5018526;28;20040;-70
2022/10/20 13:48:59;;;;;;;45.80;31.75;;;;;;;;;;5018773;28;20039;-73
2022/10/20 13:51:26;;;;;;;46.85;35.50;;;;;;;;;;5017434;28;20028;-72
2022/10/20 13:53:59;;;;;;;43.63;30.15;;;;;;;;;;5017363;28;20048;-72
2022/10/20 13:56:41;;;;;;;40.47;29.10;;;;;;;;;;5014481;28;20043;-72
2022/10/20 13:59:12;;;;;;;45.13;32.88;;;;;;;;;;5015923;28;20052;-72
2022/10/20 14:01:37;;;;;;;52.25;32.00;;;;;;;;;;5016713;28;20037;-72
2022/10/20 14:04:22;;;;;;;47.67;32.13;;;;;;;;;;5020491;28;21141;-72
2022/10/20 14:06:47;;;;;;;47.75;30.23;;;;;;;;;;5019556;28;20040;-71
2022/10/20 14:09:18;;;;;;;39.30;30.08;;;;;;;;;;5015880;28;20036;-72
2022/10/20 14:11:45;;;;;;;38.45;28.67;;;;;;;;;;5017100;28;20936;-70
2022/10/20 14:14:12;;;;;;;42.58;31.08;;;;;;;;;;5015917;28;20667;-71
2022/10/20 14:16:38;;;;;;;42.70;29.00;;;;;;;;;;5016083;28;20034;-71
2022/10/20 14:19:10;;;;;;;44.78;29.70;;;;;;;;;;5007877;28;20036;-70
2022/10/20 14:21:39;;;;;;;42.78;30.13;;;;;;;;;;5012878;28;20152;-72
2022/10/20 14:24:05;;;;;;;40.42;28.70;;;;;;;;;;5017461;28;20048;-72
2022/10/20 14:26:31;;;;;;;41.63;28.10;;;;;;;;;;5015836;28;20284;-72
2022/10/20 14:28:57;;;;;;;41.45;26.33;;;;;;;;;;5013825;28;20702;-72